Humidity-temperature Sensor

Selected Measurement Type: Relative Humidity

 
Relative Humidity [%]     6 entries per hour
Showing data from 5/22/2024 (00:00:00 Z) to 5/15/2024 (00:01:00 Z)
Previous Next [ Day | 3-Days | 7-Days ]
First Last
Prev [ Day | 3-Days | 7-Days ] Next
First Last

Start Time:     :
End Time:     :     
Time (in GMT) :00 :50 :40 :30 :20 :10
Previous Next [ Day | 3-Days | 7-Days ]
First Last
Prev [ Day | 3-Days | 7-Days ] Next
First Last


123 => good data
MM => data is determined as missing
-- => data not received/configured
Back to Top Back to Top
5/22/2024 00:00 to 23:10 83.88 83.98 82.70 83.26 82.56 82.87
5/21/2024 23:00 to 22:10 82.66 82.83 83.28 83.77 82.91 82.70
5/21/2024 22:00 to 21:10 83.61 84.82 83.47 83.10 82.15 83.73
5/21/2024 21:00 to 20:10 81.86 82.81 82.39 83.44 83.96 82.44
5/21/2024 20:00 to 19:10 83.96 83.22 81.34 83.20 84.17 82.58
5/21/2024 19:00 to 18:10 82.56 84.00 83.67 84.02 82.95 82.09
5/21/2024 18:00 to 17:10 82.15 83.38 82.72 83.28 82.97 83.53
5/21/2024 17:00 to 16:10 83.34 83.28 82.87 83.32 83.01 83.09
5/21/2024 16:00 to 15:10 84.19 84.27 81.61 82.05 83.07 84.31
5/21/2024 15:00 to 14:10 83.96 83.75 84.66 84.35 84.23 84.43
5/21/2024 14:00 to 13:10 85.32 85.01 84.87 84.02 84.60 85.09
5/21/2024 13:00 to 12:10 85.73 85.77 87.28 87.87 88.92 89.52
5/21/2024 12:00 to 11:10 88.68 87.13 87.15 87.50 88.24 88.06
5/21/2024 11:00 to 10:10 88.22 87.60 87.91 86.43 86.88 86.29
5/21/2024 10:00 to 9:10 86.43 86.68 86.78 87.46 86.86 86.25
5/21/2024 09:00 to 8:10 86.93 88.49 89.71 91.87 91.62 91.50
5/21/2024 08:00 to 7:10 90.06 90.14 90.26 89.91 89.60 87.79
5/21/2024 07:00 to 6:10 89.62 90.40 90.94 91.17 90.26 86.70
5/21/2024 06:00 to 5:10 86.14 87.05 86.02 88.45 85.30 84.41
5/21/2024 05:00 to 4:10 85.03 86.49 87.79 89.23 90.05 87.89
5/21/2024 04:00 to 3:10 88.16 88.49 89.00 88.72 88.72 85.46
5/21/2024 03:00 to 2:10 86.41 86.37 87.28 88.26 89.11 87.65
5/21/2024 02:00 to 1:10 87.52 87.27 88.06 86.86 85.65 86.49
5/21/2024 01:00 to 0:10 85.98 86.51 86.90 87.36 87.73 88.24
5/21/2024 00:00 to 23:10 89.36 89.19 86.99 85.83 87.36 87.11
5/20/2024 23:00 to 22:10 85.79 87.21 88.22 86.95 85.69 84.78
5/20/2024 22:00 to 21:10 84.23 85.53 84.93 84.89 85.90 85.28
5/20/2024 21:00 to 20:10 85.75 85.69 85.11 85.65 86.72 86.93
5/20/2024 20:00 to 19:10 86.68 86.64 86.29 85.61 84.47 84.66
5/20/2024 19:00 to 18:10 84.25 84.85 85.44 86.99 86.20 87.21
5/20/2024 18:00 to 17:10 85.65 84.56 85.59 85.26 85.67 86.00
5/20/2024 17:00 to 16:10 86.25 88.37 88.43 89.03 86.93 87.48
5/20/2024 16:00 to 15:10 88.59 88.45 88.72 89.60 90.90 90.75
5/20/2024 15:00 to 14:10 89.29 89.40 89.58 89.54 89.09 89.52
5/20/2024 14:00 to 13:10 90.75 91.10 91.06 90.22 91.45 89.62
5/20/2024 13:00 to 12:10 90.43 89.42 87.34 87.97 89.09 89.58
5/20/2024 12:00 to 11:10 89.93 86.64 86.53 86.78 85.98 86.60
5/20/2024 11:00 to 10:10 85.94 88.78 87.98 86.84 85.94 85.65
5/20/2024 10:00 to 9:10 85.53 85.83 86.33 86.47 86.22 86.31
5/20/2024 09:00 to 8:10 86.41 87.98 87.62 87.50 87.50 86.97
5/20/2024 08:00 to 7:10 86.97 88.49 90.61 90.28 89.70 88.65
5/20/2024 07:00 to 6:10 88.04 87.83 86.53 86.95 86.10 86.66
5/20/2024 06:00 to 5:10 86.92 87.09 87.75 87.42 87.48 87.60
5/20/2024 05:00 to 4:10 87.30 86.70 87.15 87.21 86.14 86.47
5/20/2024 04:00 to 3:10 86.37 85.88 86.70 86.70 85.67 86.22
5/20/2024 03:00 to 2:10 86.72 86.64 87.21 86.95 84.89 85.11
5/20/2024 02:00 to 1:10 84.62 85.09 85.71 84.27 85.28 85.13
5/20/2024 01:00 to 0:10 84.49 85.88 85.75 85.15 85.17 84.87
5/20/2024 00:00 to 23:10 85.61 85.40 84.82 85.15 83.45 83.73
5/19/2024 23:00 to 22:10 82.93 82.60 82.07 81.59 82.66 82.58
5/19/2024 22:00 to 21:10 83.09 83.47 84.12 82.54 82.52 82.25
5/19/2024 21:00 to 20:10 82.83 82.29 82.62 83.67 84.08 83.14
5/19/2024 20:00 to 19:10 83.53 82.97 84.43 84.21 83.96 83.57
5/19/2024 19:00 to 18:10 83.51 85.34 84.80 85.11 85.57 84.29
5/19/2024 18:00 to 17:10 84.52 84.23 84.76 84.47 83.73 82.83
5/19/2024 17:00 to 16:10 84.15 85.07 84.19 84.14 84.10 84.93
5/19/2024 16:00 to 15:10 84.21 83.32 83.86 83.82 84.15 83.71
5/19/2024 15:00 to 14:10 84.91 84.74 85.50 85.01 84.62 84.31
5/19/2024 14:00 to 13:10 82.25 83.45 83.26 83.24 84.50 83.42
5/19/2024 13:00 to 12:10 82.09 82.56 82.99 82.39 81.84 82.83
5/19/2024 12:00 to 11:10 83.61 83.40 83.55 84.31 83.88 83.80
5/19/2024 11:00 to 10:10 85.24 84.29 83.73 84.39 81.43 82.66
5/19/2024 10:00 to 9:10 81.20 81.34 83.03 81.78 82.33 82.54
5/19/2024 09:00 to 8:10 83.03 83.82 85.52 85.22 85.85 87.79
5/19/2024 08:00 to 7:10 87.75 87.42 83.40 83.75 82.83 82.85
5/19/2024 07:00 to 6:10 82.89 82.64 84.25 82.91 81.08 82.15
5/19/2024 06:00 to 5:10 82.15 80.91 80.60 82.19 81.76 81.49
5/19/2024 05:00 to 4:10 80.25 81.08 82.40 80.48 81.41 80.29
5/19/2024 04:00 to 3:10 80.32 80.52 81.14 80.81 81.43 81.53
5/19/2024 03:00 to 2:10 81.02 80.79 78.91 79.62 79.82 81.16
5/19/2024 02:00 to 1:10 79.41 80.44 80.19 80.89 81.24 82.05
5/19/2024 01:00 to 0:10 81.02 80.67 82.02 80.62 80.97 81.84
5/19/2024 00:00 to 23:10 81.45 80.44 80.91 80.15 80.34 78.38
5/18/2024 23:00 to 22:10 79.47 80.29 78.40 79.53 79.84 80.67
5/18/2024 22:00 to 21:10 80.27 79.92 80.36 80.46 81.30 80.56
5/18/2024 21:00 to 20:10 82.17 81.69 81.92 81.24 82.97 82.62
5/18/2024 20:00 to 19:10 82.87 83.28 82.04 82.91 85.28 83.79
5/18/2024 19:00 to 18:10 82.89 83.09 82.87 82.44 82.85 83.28
5/18/2024 18:00 to 17:10 82.35 83.30 83.69 81.51 82.62 83.65
5/18/2024 17:00 to 16:10 83.30 84.08 82.97 84.12 84.19 83.44
5/18/2024 16:00 to 15:10 83.09 84.14 83.34 81.59 81.63 84.00
5/18/2024 15:00 to 14:10 84.35 84.60 83.53 83.88 85.71 85.09
5/18/2024 14:00 to 13:10 85.98 86.80 86.99 86.82 86.99 86.82
5/18/2024 13:00 to 12:10 86.37 87.05 87.23 87.93 89.44 89.71
5/18/2024 12:00 to 11:10 89.48 90.55 91.13 90.88 90.41 90.55
5/18/2024 11:00 to 10:10 89.02 89.97 90.43 91.13 91.87 92.13
5/18/2024 10:00 to 9:10 91.72 92.20 91.91 91.10 89.64 88.49
5/18/2024 09:00 to 8:10 86.35 87.60 87.95 87.50 89.62 88.84
5/18/2024 08:00 to 7:10 86.51 86.23 88.24 88.51 88.70 87.60
5/18/2024 07:00 to 6:10 88.33 87.69 88.61 87.77 88.10 89.68
5/18/2024 06:00 to 5:10 88.96 87.23 85.94 86.14 86.45 86.64
5/18/2024 05:00 to 4:10 86.84 86.31 88.43 87.17 89.02 88.88
5/18/2024 04:00 to 3:10 89.52 89.29 87.95 89.66 89.05 85.75
5/18/2024 03:00 to 2:10 86.45 86.02 86.14 87.07 85.90 85.65
5/18/2024 02:00 to 1:10 85.96 85.30 85.73 86.90 86.86 87.50
5/18/2024 01:00 to 0:10 87.97 88.24 87.07 86.55 86.88 86.80
5/18/2024 00:00 to 23:10 85.17 86.68 87.50 86.37 86.37 87.07
5/17/2024 23:00 to 22:10 86.60 85.92 85.83 84.68 85.11 84.45
5/17/2024 22:00 to 21:10 84.97 89.17 92.36 91.70 89.27 89.07
5/17/2024 21:00 to 20:10 91.35 90.98 89.48 90.20 89.36 86.55
5/17/2024 20:00 to 19:10 85.11 87.44 87.15 86.47 86.45 85.09
5/17/2024 19:00 to 18:10 85.61 86.62 87.01 86.74 84.99 83.86
5/17/2024 18:00 to 17:10 83.44 84.14 84.23 83.63 85.07 84.87
5/17/2024 17:00 to 16:10 85.28 85.83 85.83 85.36 85.67 85.01
5/17/2024 16:00 to 15:10 85.30 84.33 85.57 84.70 84.64 85.01
5/17/2024 15:00 to 14:10 85.30 84.76 84.85 83.86 85.34 84.02
5/17/2024 14:00 to 13:10 83.63 84.17 86.39 85.44 85.83 85.53
5/17/2024 13:00 to 12:10 86.06 86.62 86.72 85.85 87.79 86.68
5/17/2024 12:00 to 11:10 86.62 88.30 87.11 86.82 86.29 86.86
5/17/2024 11:00 to 10:10 87.63 88.06 87.56 86.74 90.06 90.18
5/17/2024 10:00 to 9:10 90.80 92.48 91.62 90.12 88.76 88.70
5/17/2024 09:00 to 8:10 88.41 88.08 88.02 90.10 88.14 88.76
5/17/2024 08:00 to 7:10 88.55 88.78 87.60 87.81 88.16 87.91
5/17/2024 07:00 to 6:10 88.00 88.55 87.63 88.00 87.97 88.14
5/17/2024 06:00 to 5:10 87.52 87.36 87.65 88.24 87.25 87.17
5/17/2024 05:00 to 4:10 90.20 90.36 90.03 89.00 87.85 89.60
5/17/2024 04:00 to 3:10 88.59 88.90 87.91 87.93 87.63 88.92
5/17/2024 03:00 to 2:10 88.49 88.32 87.98 88.61 88.72 87.63
5/17/2024 02:00 to 1:10 87.89 87.67 88.96 90.94 87.36 87.38
5/17/2024 01:00 to 0:10 86.82 88.57 89.17 88.39 88.74 88.00
5/17/2024 00:00 to 23:10 86.74 86.74 86.51 87.73 87.07 87.73
5/16/2024 23:00 to 22:10 87.46 87.19 86.49 87.25 87.09 86.06
5/16/2024 22:00 to 21:10 85.85 86.00 85.30 85.44 85.61 85.90
5/16/2024 21:00 to 20:10 86.22 85.67 85.44 86.04 85.69 86.95
5/16/2024 20:00 to 19:10 86.92 87.13 87.07 86.04 86.10 86.76
5/16/2024 19:00 to 18:10 86.84 87.46 87.09 89.15 89.07 88.63
5/16/2024 18:00 to 17:10 88.24 88.47 88.41 88.06 87.98 86.37
5/16/2024 17:00 to 16:10 87.17 89.21 88.57 87.48 88.49 88.74
5/16/2024 16:00 to 15:10 87.97 88.72 87.75 85.38 85.52 86.55
5/16/2024 15:00 to 14:10 86.10 87.01 87.19 87.54 89.58 90.86
5/16/2024 14:00 to 13:10 89.07 88.04 88.92 89.17 93.82 95.90
5/16/2024 13:00 to 12:10 95.86 94.61 92.22 91.04 89.50 90.47
5/16/2024 12:00 to 11:10 92.22 91.11 91.56 90.45 90.38 90.86
5/16/2024 11:00 to 10:10 90.36 89.23 89.29 88.45 88.53 90.88
5/16/2024 10:00 to 9:10 89.64 91.60 89.46 88.65 88.30 88.59
5/16/2024 09:00 to 8:10 -- -- -- -- -- --
5/16/2024 08:00 to 7:10 89.27 89.58 88.96 89.54 88.53 89.35
5/16/2024 07:00 to 6:10 88.84 89.54 88.20 88.80 88.86 89.27
5/16/2024 06:00 to 5:10 89.40 89.27 88.18 90.20 88.47 87.69
5/16/2024 05:00 to 4:10 89.13 89.60 90.63 90.03 90.43 90.76
5/16/2024 04:00 to 3:10 90.73 90.05 88.72 88.94 88.39 89.35
5/16/2024 03:00 to 2:10 94.24 93.78 90.94 89.83 88.18 88.16
5/16/2024 02:00 to 1:10 88.18 89.35 87.87 88.82 88.12 87.23
5/16/2024 01:00 to 0:10 88.67 86.97 87.58 87.97 88.98 89.13
5/16/2024 00:00 to 23:10 88.06 89.46 90.57 89.52 89.35 89.07
5/15/2024 23:00 to 22:10 88.04 89.23 87.38 86.47 88.61 90.40
5/15/2024 22:00 to 21:10 88.90 89.15 88.86 88.33 87.85 88.32
5/15/2024 21:00 to 20:10 89.21 88.76 87.23 86.60 87.85 86.84
5/15/2024 20:00 to 19:10 86.43 87.83 86.88 88.06 89.11 87.36
5/15/2024 19:00 to 18:10 87.75 87.44 86.84 86.14 86.92 86.27
5/15/2024 18:00 to 17:10 86.20 87.52 85.98 87.28 85.48 87.15
5/15/2024 17:00 to 16:10 87.17 86.00 87.42 87.40 86.12 86.93
5/15/2024 16:00 to 15:10 87.93 88.76 88.80 88.37 89.73 95.86
5/15/2024 15:00 to 14:10 99.22 98.33 97.55 96.81 97.55 98.06
5/15/2024 14:00 to 13:10 98.54 98.56 98.46 99.01 99.36 99.34
5/15/2024 13:00 to 12:10 99.34 99.34 99.34 99.34 99.34 99.34
5/15/2024 12:00 to 11:10 99.34 99.34 99.34 99.34 99.36 99.36
5/15/2024 11:00 to 10:10 99.36 98.52 97.18 96.36 95.43 93.49
5/15/2024 10:00 to 9:10 93.53 91.10 89.93 90.06 90.22 90.53
5/15/2024 09:00 to 8:10 92.01 92.63 94.87 94.05 92.90 93.54
5/15/2024 08:00 to 7:10 93.21 94.23 94.77 94.83 94.67 94.83
5/15/2024 07:00 to 6:10 95.64 95.92 95.84 96.50 96.42 96.42
5/15/2024 06:00 to 5:10 95.94 95.96 97.22 97.74 98.25 98.06
5/15/2024 05:00 to 4:10 98.66 99.03 98.42 98.00 99.01 99.26
5/15/2024 04:00 to 3:10 99.30 99.36 99.36 99.36 99.36 99.36
5/15/2024 03:00 to 2:10 99.36 99.36 99.36 99.36 99.36 99.20
5/15/2024 02:00 to 1:10 99.01 99.12 99.32 99.12 97.32 91.06
5/15/2024 01:00 to 0:10 92.59 93.08 91.41 89.66 88.68 90.36